Rock Springs, Wyoming
Current Conditions -  °F | °C
As of 7:54 PM on Friday 31 Oct 2014 (Local Time) from KRKS Reporting Station
Clear Clear  
Wind Chill: 52°   Ceiling: Unl
Heat Index: 52°   Visibility: 10mi
Dew Point: 22°   Wind: 0mph
Humidity: 31%   Direction: NA
Pressure: 30.01"   Gusts: NA
Location:  41.59°N, 109.22°W
Report Text: KRKS 010154Z AUTO 00000KT 10SM CLR 11/M06 A3001 RMK AO2 SLP138 T01111056
Loading
Personal Weather Stations






























Interactive Weather Map
Tropical Storm Tracking
New forecast layout! Learn more

10-Day Weather Forecast

Advertisements
Track Severe Weather on mobile